ADDS METAR Data INFO
IDs: Format: Raw Decoded Include TAF

Data at: 0305 UTC 17 Jan 2018

KBIH 170256Z AUTO 23003KT 10SM CLR 10/M01 A3022 RMK AO2 SLP226 T01001006 53014
KBIH 170156Z AUTO 15009KT 10SM CLR 12/M01 A3020 RMK AO2 SLP217 T01171011
KBIH 170056Z AUTO 15006KT 10SM CLR 13/M01 A3018 RMK AO2 SLP208 T01281011
KBIH 162356Z AUTO 17011KT 10SM CLR 17/M03 A3017 RMK AO2 SLP199 T01671033 10189 20117 55000
KBIH 162256Z AUTO 00000KT 10SM CLR 18/M05 A3016 RMK AO2 SLP193 T01831050
KBIH 162156Z AUTO 00000KT 10SM CLR 18/M04 A3015 RMK AO2 SLP188 T01831044
KBIH 162056Z AUTO 36005KT 10SM CLR 18/M04 A3017 RMK AO2 SLP197 T01831044 58019
KBIH 161956Z AUTO 28004KT 10SM CLR 17/M04 A3019 RMK AO2 SLP206 T01671039
KBIH 161856Z AUTO 05004KT 10SM FEW110 16/M03 A3023 RMK AO2 SLP221 T01561028
KBIH 161756Z AUTO 00000KT 10SM CLR 11/M02 A3023 RMK AO2 SLP227 T01111017 10111 21006 50007
KBIH 161656Z AUTO 25007KT 10SM SCT120 09/M01 A3024 RMK AO2 SLP230 T00891011
KBIH 161556Z AUTO 33008KT 10SM CLR 02/M03 A3022 RMK AO2 SLP228 T00221028
KBIH 161456Z AUTO 05005KT 10SM CLR M01/M04 A3021 RMK AO2 SLP228 T10061039 53004
KBIH 161356Z AUTO 30005KT 10SM CLR 00/M04 A3019 RMK AO2 SLP215 T00001039
KBIH 161256Z AUTO 30003KT 10SM CLR 02/M02 A3017 RMK AO2 SLP202 T00171022
KBIH 161156Z AUTO 35008KT 10SM CLR 02/M03 A3020 RMK AO2 SLP212 T00171028 10044 20006 53004
KBIH 161056Z AUTO 31004KT 10SM CLR 02/M03 A3019 RMK AO2 SLP206 T00171028
KBIH 160956Z AUTO 28005KT 10SM CLR 04/M02 A3019 RMK AO2 SLP204 T00391017
KBIH 160856Z AUTO 30006KT 10SM CLR 03/M02 A3018 RMK AO2 SLP205 T00281022 58003
KBIH 160756Z AUTO 28006KT 10SM CLR 02/M03 A3018 RMK AO2 SLP205 T00221028 401671028
KBIH 160656Z AUTO VRB03KT 10SM CLR 03/M02 A3020 RMK AO2 SLP212 T00331022
KBIH 160556Z AUTO 07007KT 10SM CLR 03/M02 A3020 RMK AO2 SLP214 T00331022 10150 20028 53010
KBIH 160456Z AUTO 04005KT 10SM CLR 04/M02 A3018 RMK AO2 SLP213 T00391022
KBIH 160356Z AUTO 31003KT 10SM CLR 07/M02 A3017 RMK AO2 SLP214 T00721022
KBIH 160256Z AUTO 00000KT 10SM CLR 08/M02 A3016 RMK AO2 SLP212 T00831022 51003
KBIH 160156Z AUTO 17003KT 10SM CLR 12/M03 A3015 RMK AO2 SLP205 T01171028
KBIH 160056Z AUTO 06003KT 10SM CLR 13/M02 A3016 RMK AO2 SLP201 T01331022
KBIH 152356Z AUTO 20004KT 10SM CLR 15/M03 A3015 RMK AO2 SLP196 T01501033 10167 20106 53003
KBIH 152256Z AUTO 17005KT 10SM CLR 16/M03 A3014 RMK AO2 SLP188 T01611028
KBIH 152156Z AUTO 14004KT 10SM CLR 16/M03 A3014 RMK AO2 SLP186 T01611033
KBIH 152056Z AUTO 19004KT 10SM CLR 16/M03 A3014 RMK AO2 SLP187 T01611033 58031
KBIH 151956Z AUTO 10SM CLR 15/M03 A3018 RMK AO2 SLP199 T01501033
KBIH 151856Z AUTO 24003KT 10SM CLR 14/M03 A3022 RMK AO2 SLP218 T01391028
KBIH 151756Z AUTO 00000KT 10SM CLR 11/M02 A3025 RMK AO2 SLP233 T01111022 10111 21028 51006
KBIH 151656Z AUTO 33005KT 10SM CLR 06/M02 A3025 RMK AO2 SLP237 T00611017
KBIH 151556Z AUTO 34006KT 10SM CLR 01/M03 A3023 RMK AO2 SLP238 T00061033